createdAt,value
2023-05-02T00:00:32.701Z,12.98
2023-05-02T00:01:32.699Z,13.01
2023-05-02T00:02:32.880Z,12.95
2023-05-02T00:03:32.731Z,13.04
2023-05-02T00:04:32.751Z,13.04
2023-05-02T00:05:32.633Z,13.11
2023-05-02T00:06:32.691Z,13.11
2023-05-02T00:07:32.634Z,13.13
2023-05-02T00:08:32.594Z,13.05
2023-05-02T00:09:32.581Z,13.05
2023-05-02T00:10:32.566Z,13.04
2023-05-02T00:11:32.564Z,13.09
2023-05-02T00:12:32.534Z,13.15
2023-05-02T00:13:32.530Z,13.09
2023-05-02T00:14:32.507Z,13.11
2023-05-02T00:15:32.495Z,13.13
2023-05-02T00:16:32.515Z,13.12
2023-05-02T00:17:32.533Z,13.18
2023-05-02T00:18:32.462Z,13.11
2023-05-02T00:19:32.447Z,13.04
2023-05-02T00:20:32.424Z,12.94
2023-05-02T00:21:32.453Z,12.80
2023-05-02T00:22:32.396Z,12.80
2023-05-02T00:23:32.420Z,12.76
2023-05-02T00:24:32.374Z,12.82
2023-05-02T00:25:32.359Z,12.78
2023-05-02T00:26:32.356Z,12.76
2023-05-02T00:27:32.329Z,12.76
2023-05-02T00:28:32.326Z,12.68
2023-05-02T00:29:32.304Z,12.68
2023-05-02T00:30:32.311Z,12.68
2023-05-02T00:31:32.376Z,12.73
2023-05-02T00:32:32.333Z,12.76
2023-05-02T00:33:32.249Z,12.78
2023-05-02T00:34:32.237Z,12.75
2023-05-02T00:35:32.221Z,12.73
2023-05-02T00:36:32.222Z,12.76
2023-05-02T00:37:32.196Z,12.75
2023-05-02T00:38:32.187Z,12.79
2023-05-02T00:39:32.210Z,12.79
2023-05-02T00:40:32.170Z,12.80
2023-05-02T00:41:32.160Z,12.73
2023-05-02T00:42:32.123Z,12.76
2023-05-02T00:43:32.114Z,12.75
2023-05-02T00:44:32.102Z,12.67
2023-05-02T00:45:32.087Z,12.67
2023-05-02T00:46:32.185Z,12.70
2023-05-02T00:47:32.101Z,12.78
2023-05-02T00:48:32.058Z,12.72
2023-05-02T00:49:32.032Z,12.78
2023-05-02T00:50:32.014Z,12.76
2023-05-02T00:51:32.021Z,12.80
2023-05-02T00:52:31.989Z,12.75
2023-05-02T00:53:31.980Z,12.78
2023-05-02T00:54:31.962Z,12.78
2023-05-02T00:55:31.966Z,12.78
2023-05-02T00:56:31.962Z,12.75
2023-05-02T00:57:31.925Z,12.76
2023-05-02T00:58:31.930Z,12.76
2023-05-02T00:59:31.921Z,12.78
2023-05-02T01:00:31.886Z,12.68
2023-05-02T01:01:31.913Z,12.64
2023-05-02T01:02:31.911Z,12.61
2023-05-02T01:03:31.955Z,12.60
2023-05-02T01:04:31.831Z,12.61
2023-05-02T01:05:31.817Z,12.55
2023-05-02T01:06:31.958Z,12.54
2023-05-02T01:07:31.796Z,12.46
2023-05-02T01:08:31.777Z,12.39
2023-05-02T01:09:31.771Z,12.37
2023-05-02T01:10:31.750Z,12.36
2023-05-02T01:11:31.773Z,12.27
2023-05-02T01:12:31.731Z,12.27
2023-05-02T01:13:31.717Z,12.22
2023-05-02T01:14:31.697Z,12.17
2023-05-02T01:15:31.681Z,12.21
2023-05-02T01:16:31.743Z,12.15
2023-05-02T01:17:31.682Z,12.09
2023-05-02T01:18:31.659Z,12.04
2023-05-02T01:19:31.646Z,12.06
2023-05-02T01:20:31.617Z,11.97
2023-05-02T01:21:31.619Z,11.91
2023-05-02T01:22:31.590Z,11.86
2023-05-02T01:23:31.596Z,11.80
2023-05-02T01:24:31.565Z,11.77
2023-05-02T01:25:31.556Z,11.77
2023-05-02T01:26:31.556Z,11.77
2023-05-02T01:27:31.551Z,11.73
2023-05-02T01:28:31.529Z,11.73
2023-05-02T01:29:31.502Z,11.77
2023-05-02T01:30:31.497Z,11.75
2023-05-02T01:31:31.523Z,11.73
2023-05-02T01:32:31.489Z,11.70
2023-05-02T01:33:31.456Z,11.73
2023-05-02T01:34:31.439Z,11.75
2023-05-02T01:35:31.438Z,11.75
2023-05-02T01:36:31.428Z,11.73
2023-05-02T01:37:31.408Z,11.68
2023-05-02T01:38:31.400Z,11.63
2023-05-02T01:39:31.371Z,11.66
2023-05-02T01:40:31.363Z,11.66
2023-05-02T01:41:31.364Z,11.72
2023-05-02T01:42:31.350Z,11.72
2023-05-02T01:43:31.338Z,11.75
2023-05-02T01:44:31.317Z,11.77
2023-05-02T01:45:31.311Z,11.73
2023-05-02T01:46:31.413Z,11.73
2023-05-02T01:47:31.360Z,11.70
2023-05-02T01:48:31.263Z,11.68
2023-05-02T01:49:31.255Z,11.65
2023-05-02T01:50:31.239Z,11.59
2023-05-02T01:51:31.245Z,11.54
2023-05-02T01:52:31.217Z,11.51
2023-05-02T01:53:31.198Z,11.52
2023-05-02T01:54:31.184Z,11.45
2023-05-02T01:55:31.169Z,11.40
2023-05-02T01:56:31.178Z,11.36
2023-05-02T01:57:31.144Z,11.33
2023-05-02T01:58:31.149Z,11.30
2023-05-02T01:59:31.149Z,11.33
2023-05-02T02:00:31.108Z,11.33
2023-05-02T02:01:31.321Z,11.36
2023-05-02T02:02:31.084Z,11.33
2023-05-02T02:03:31.135Z,11.36
2023-05-02T02:04:31.089Z,11.32
2023-05-02T02:05:31.051Z,11.35
2023-05-02T02:06:31.085Z,11.41
2023-05-02T02:07:31.012Z,11.36
2023-05-02T02:08:31.012Z,11.40
2023-05-02T02:09:30.985Z,11.47
2023-05-02T02:10:30.973Z,11.44
2023-05-02T02:11:30.979Z,11.47
2023-05-02T02:12:30.947Z,11.48
2023-05-02T02:13:30.938Z,11.48
2023-05-02T02:14:30.920Z,11.44
2023-05-02T02:15:30.926Z,11.45
2023-05-02T02:16:30.945Z,11.48
2023-05-02T02:17:30.909Z,11.43
2023-05-02T02:18:30.868Z,11.41
2023-05-02T02:19:30.890Z,11.37
2023-05-02T02:20:30.842Z,11.32
2023-05-02T02:21:30.826Z,11.30
2023-05-02T02:22:30.829Z,11.26
2023-05-02T02:23:30.803Z,11.19
2023-05-02T02:24:30.784Z,11.08
2023-05-02T02:25:30.772Z,11.00
2023-05-02T02:26:30.759Z,10.97
2023-05-02T02:27:30.763Z,10.89
2023-05-02T02:28:30.736Z,10.79
2023-05-02T02:29:30.724Z,10.76
2023-05-02T02:30:30.713Z,10.64
2023-05-02T02:31:30.963Z,10.67
2023-05-02T02:32:30.794Z,10.57
2023-05-02T02:33:30.668Z,10.59
2023-05-02T02:34:30.656Z,10.57
2023-05-02T02:35:30.643Z,10.57
2023-05-02T02:36:30.631Z,10.57
2023-05-02T02:37:30.626Z,10.57
2023-05-02T02:38:30.604Z,10.54
2023-05-02T02:39:30.595Z,10.54
2023-05-02T02:40:30.584Z,10.48
2023-05-02T02:41:30.559Z,10.46
2023-05-02T02:42:30.577Z,10.54
2023-05-02T02:43:30.533Z,10.49
2023-05-02T02:44:30.525Z,10.54
2023-05-02T02:45:30.513Z,10.46
2023-05-02T02:46:30.573Z,10.53
2023-05-02T02:47:30.551Z,10.53
2023-05-02T02:48:30.471Z,10.53
2023-05-02T02:49:30.457Z,10.54
2023-05-02T02:50:30.446Z,10.63
2023-05-02T02:51:30.425Z,10.60
2023-05-02T02:52:30.431Z,10.68
2023-05-02T02:53:30.402Z,10.64
2023-05-02T02:54:30.391Z,10.75
2023-05-02T02:55:30.377Z,10.75
2023-05-02T02:56:30.359Z,10.74
2023-05-02T02:57:30.359Z,10.71
2023-05-02T02:58:30.337Z,10.69
2023-05-02T02:59:30.318Z,10.64
2023-05-02T03:00:30.311Z,10.64
2023-05-02T03:01:30.362Z,10.63
2023-05-02T03:02:30.360Z,10.57
2023-05-02T03:03:30.308Z,10.56
2023-05-02T03:04:30.255Z,10.53
2023-05-02T03:05:30.272Z,10.35
2023-05-02T03:06:30.291Z,10.25
2023-05-02T03:07:30.230Z,10.22
2023-05-02T03:08:30.208Z,10.30
2023-05-02T03:09:30.194Z,10.28
2023-05-02T03:10:30.188Z,10.28
2023-05-02T03:11:30.157Z,10.25
2023-05-02T03:12:30.158Z,10.25
2023-05-02T03:13:30.131Z,10.26
2023-05-02T03:14:30.119Z,10.20
2023-05-02T03:15:30.106Z,10.17
2023-05-02T03:16:30.112Z,10.09
2023-05-02T03:17:30.126Z,9.94
2023-05-02T03:18:30.068Z,9.92
2023-05-02T03:19:30.075Z,9.87
2023-05-02T03:20:30.044Z,9.87
2023-05-02T03:21:30.026Z,9.82
2023-05-02T03:22:30.033Z,9.77
2023-05-02T03:23:29.999Z,9.79
2023-05-02T03:24:29.986Z,9.73
2023-05-02T03:25:29.989Z,9.76
2023-05-02T03:26:29.972Z,9.76
2023-05-02T03:27:29.963Z,9.74
2023-05-02T03:28:29.939Z,9.72
2023-05-02T03:29:29.920Z,9.72
2023-05-02T03:30:29.918Z,9.73
2023-05-02T03:31:29.937Z,9.72
2023-05-02T03:32:29.907Z,9.68
2023-05-02T03:33:29.869Z,9.73
2023-05-02T03:34:29.857Z,9.73
2023-05-02T03:35:29.862Z,9.74
2023-05-02T03:36:29.837Z,9.77
2023-05-02T03:37:29.847Z,9.79
2023-05-02T03:38:29.805Z,9.76
2023-05-02T03:39:29.788Z,9.72
2023-05-02T03:40:29.777Z,9.72
2023-05-02T03:41:29.770Z,9.68
2023-05-02T03:42:29.767Z,9.64
2023-05-02T03:43:29.735Z,9.64
2023-05-02T03:44:29.739Z,9.62
2023-05-02T03:45:29.710Z,9.55
2023-05-02T03:46:29.743Z,9.64
2023-05-02T03:47:29.743Z,9.61
2023-05-02T03:48:29.671Z,9.62
2023-05-02T03:49:29.659Z,9.66
2023-05-02T03:50:29.644Z,9.64
2023-05-02T03:51:29.646Z,9.56
2023-05-02T03:52:29.634Z,9.56
2023-05-02T03:53:29.603Z,9.54
2023-05-02T03:54:29.595Z,9.50
2023-05-02T03:55:29.582Z,9.56
2023-05-02T03:56:29.590Z,9.54
2023-05-02T03:57:29.566Z,9.54
2023-05-02T03:58:29.542Z,9.50
2023-05-02T03:59:29.538Z,9.50
2023-05-02T04:00:29.513Z,9.50
2023-05-02T04:01:29.500Z,9.54
2023-05-02T04:02:29.673Z,9.58
2023-05-02T04:03:30.140Z,9.55
2023-05-02T04:04:29.485Z,9.58
2023-05-02T04:05:29.452Z,9.54
2023-05-02T04:06:29.516Z,9.55
2023-05-02T04:07:29.468Z,9.56
2023-05-02T04:08:29.407Z,9.59
2023-05-02T04:09:29.394Z,9.68
2023-05-02T04:10:29.381Z,9.76
2023-05-02T04:11:29.366Z,9.77
2023-05-02T04:12:29.355Z,9.82
2023-05-02T04:13:29.378Z,9.89
2023-05-02T04:14:29.329Z,9.89
2023-05-02T04:15:29.315Z,9.97
2023-05-02T04:16:29.362Z,10.02
2023-05-02T04:17:29.322Z,10.10
2023-05-02T04:18:29.292Z,10.13
2023-05-02T04:19:29.274Z,10.12
2023-05-02T04:20:29.260Z,10.16
2023-05-02T04:21:29.235Z,10.20
2023-05-02T04:22:29.229Z,10.19
2023-05-02T04:23:29.245Z,10.16
2023-05-02T04:24:29.202Z,10.20
2023-05-02T04:25:29.198Z,10.16
2023-05-02T04:26:29.171Z,10.17
2023-05-02T04:27:29.157Z,10.19
2023-05-02T04:28:29.163Z,10.20
2023-05-02T04:29:29.133Z,10.25
2023-05-02T04:30:29.119Z,10.22
2023-05-02T04:31:29.234Z,10.28
2023-05-02T04:32:29.114Z,10.22
2023-05-02T04:33:29.086Z,10.23
2023-05-02T04:34:29.057Z,10.28
2023-05-02T04:35:29.048Z,10.33
2023-05-02T04:36:29.035Z,10.37
2023-05-02T04:37:29.021Z,10.34
2023-05-02T04:38:29.021Z,10.33
2023-05-02T04:39:29.013Z,10.26
2023-05-02T04:40:28.990Z,10.26
2023-05-02T04:41:28.973Z,10.22
2023-05-02T04:42:28.962Z,10.22
2023-05-02T04:43:28.961Z,10.25
2023-05-02T04:44:28.931Z,10.25
2023-05-02T04:45:28.911Z,10.20
2023-05-02T04:46:28.950Z,10.23
2023-05-02T04:47:28.910Z,10.13
2023-05-02T04:48:28.887Z,10.17
2023-05-02T04:49:28.858Z,10.28
2023-05-02T04:50:28.845Z,10.35
2023-05-02T04:51:28.832Z,10.46
2023-05-02T04:52:28.820Z,10.44
2023-05-02T04:53:28.828Z,10.53
2023-05-02T04:54:28.799Z,10.69
2023-05-02T04:55:28.798Z,10.75
2023-05-02T04:56:28.778Z,10.82
2023-05-02T04:57:28.787Z,10.93
2023-05-02T04:58:28.757Z,10.97
2023-05-02T04:59:28.725Z,11.05
2023-05-02T05:00:28.716Z,11.14
2023-05-02T05:01:28.732Z,11.15
2023-05-02T05:02:28.750Z,11.25
2023-05-02T05:03:28.791Z,11.33
2023-05-02T05:04:28.708Z,11.43
2023-05-02T05:05:28.725Z,11.50
2023-05-02T05:06:28.700Z,11.54
2023-05-02T05:07:28.639Z,11.59
2023-05-02T05:08:28.633Z,11.66
2023-05-02T05:09:28.600Z,11.57
2023-05-02T05:10:28.587Z,11.48
2023-05-02T05:11:28.597Z,11.55
2023-05-02T05:12:28.574Z,11.52
2023-05-02T05:13:28.649Z,11.54
2023-05-02T05:14:28.533Z,11.47
2023-05-02T05:15:28.532Z,11.37
2023-05-02T05:16:28.571Z,11.33
2023-05-02T05:17:28.574Z,11.29
2023-05-02T05:18:28.503Z,11.33
2023-05-02T05:19:28.474Z,11.41
2023-05-02T05:20:28.460Z,11.50
2023-05-02T05:21:28.453Z,11.52
2023-05-02T05:22:28.431Z,11.55
2023-05-02T05:23:28.416Z,11.57
2023-05-02T05:24:28.421Z,11.51
2023-05-02T05:25:28.389Z,11.48
2023-05-02T05:26:28.379Z,11.48
2023-05-02T05:27:28.382Z,11.50
2023-05-02T05:28:28.351Z,11.45
2023-05-02T05:29:28.352Z,11.41
2023-05-02T05:30:28.328Z,11.33
2023-05-02T05:31:28.414Z,11.36
2023-05-02T05:32:28.317Z,11.40
2023-05-02T05:33:28.323Z,11.43
2023-05-02T05:34:28.293Z,11.43
2023-05-02T05:35:28.250Z,11.50
2023-05-02T05:36:28.240Z,11.48
2023-05-02T05:37:28.226Z,11.48
2023-05-02T05:38:28.216Z,11.57
2023-05-02T05:39:28.215Z,11.70
2023-05-02T05:40:28.185Z,11.81
2023-05-02T05:41:28.172Z,11.97
2023-05-02T05:42:28.157Z,12.10
2023-05-02T05:43:28.167Z,12.25
2023-05-02T05:44:28.153Z,12.31
2023-05-02T05:45:28.124Z,12.27
2023-05-02T05:46:28.119Z,12.35
2023-05-02T05:47:28.340Z,12.36
2023-05-02T05:48:28.107Z,12.49
2023-05-02T05:49:28.091Z,12.42
2023-05-02T05:50:28.053Z,12.49
2023-05-02T05:51:28.042Z,12.62
2023-05-02T05:52:28.035Z,12.68
2023-05-02T05:53:28.013Z,12.76
2023-05-02T05:54:28.012Z,12.90
2023-05-02T05:55:27.988Z,12.94
2023-05-02T05:56:27.977Z,13.11
2023-05-02T05:57:27.959Z,13.27
2023-05-02T05:58:27.945Z,13.44
2023-05-02T05:59:27.971Z,13.31
2023-05-02T06:00:27.919Z,13.25
2023-05-02T06:01:27.908Z,13.39
2023-05-02T06:02:28.009Z,13.33
2023-05-02T06:03:28.047Z,13.22
2023-05-02T06:04:27.918Z,13.35
2023-05-02T06:05:27.851Z,13.87
2023-05-02T06:06:27.905Z,14.17
2023-05-02T06:07:27.830Z,14.26
2023-05-02T06:08:27.817Z,14.47
2023-05-02T06:09:27.825Z,15.04
2023-05-02T06:10:27.812Z,15.39
2023-05-02T06:11:27.772Z,15.36
2023-05-02T06:12:27.769Z,15.18
2023-05-02T06:13:27.747Z,15.11
2023-05-02T06:14:27.757Z,15.22
2023-05-02T06:15:27.761Z,15.27
2023-05-02T06:16:27.802Z,15.97
2023-05-02T06:17:27.731Z,16.69
2023-05-02T06:18:27.679Z,17.04
2023-05-02T06:19:27.686Z,16.91
2023-05-02T06:20:27.654Z,17.22
2023-05-02T06:21:27.647Z,17.70
2023-05-02T06:22:27.629Z,17.44
2023-05-02T06:23:27.663Z,17.34
2023-05-02T06:24:27.629Z,17.11
2023-05-02T06:25:27.591Z,16.53
2023-05-02T06:26:27.579Z,16.08
2023-05-02T06:27:27.566Z,15.97
2023-05-02T06:28:27.554Z,15.88
2023-05-02T06:29:27.579Z,15.84
2023-05-02T06:30:27.547Z,16.08
2023-05-02T06:31:27.568Z,16.83
2023-05-02T06:32:27.522Z,17.57
2023-05-02T06:33:27.487Z,18.19
2023-05-02T06:34:27.595Z,18.19
2023-05-02T06:35:27.473Z,18.33
2023-05-02T06:36:27.464Z,18.70
2023-05-02T06:37:27.436Z,19.00
2023-05-02T06:38:27.425Z,18.49
2023-05-02T06:39:27.402Z,18.07
2023-05-02T06:40:27.425Z,17.72
2023-05-02T06:41:27.387Z,17.48
2023-05-02T06:42:27.357Z,17.52
2023-05-02T06:43:27.352Z,16.91
2023-05-02T06:44:27.336Z,16.84
2023-05-02T06:45:27.347Z,17.46
2023-05-02T06:46:27.354Z,17.71
2023-05-02T06:47:27.327Z,17.86
2023-05-02T06:48:27.280Z,18.68
2023-05-02T06:49:27.267Z,19.18
2023-05-02T06:50:27.310Z,19.59
2023-05-02T06:51:27.242Z,20.29
2023-05-02T06:52:27.244Z,20.40
2023-05-02T06:53:27.214Z,20.47
2023-05-02T06:54:27.218Z,20.39
2023-05-02T06:55:27.205Z,20.82
2023-05-02T06:56:27.173Z,21.17
2023-05-02T06:57:27.165Z,21.45
2023-05-02T06:58:27.151Z,22.04
2023-05-02T06:59:27.131Z,22.10
2023-05-02T07:00:27.156Z,21.91
2023-05-02T07:01:27.148Z,22.41
2023-05-02T07:02:27.192Z,22.51
2023-05-02T07:03:27.119Z,21.89
2023-05-02T07:04:28.047Z,21.48
2023-05-02T07:05:27.067Z,21.29
2023-05-02T07:06:27.118Z,21.89
2023-05-02T07:07:27.023Z,22.18
2023-05-02T07:08:27.009Z,21.37
2023-05-02T07:09:27.004Z,20.40
2023-05-02T07:10:26.999Z,19.16
2023-05-02T07:11:26.977Z,18.78
2023-05-02T07:12:26.984Z,18.44
2023-05-02T07:13:26.963Z,18.34
2023-05-02T07:14:26.930Z,18.23
2023-05-02T07:15:26.933Z,18.05
2023-05-02T07:16:26.959Z,17.78
2023-05-02T07:17:26.907Z,17.59
2023-05-02T07:18:26.880Z,17.39
2023-05-02T07:19:26.884Z,17.16
2023-05-02T07:20:26.882Z,17.08
2023-05-02T07:21:26.866Z,16.84
2023-05-02T07:22:26.823Z,16.60
2023-05-02T07:23:26.813Z,16.56
2023-05-02T07:24:26.798Z,16.64
2023-05-02T07:25:26.799Z,16.65
2023-05-02T07:26:26.771Z,16.57
2023-05-02T07:27:26.756Z,16.58
2023-05-02T07:28:26.774Z,16.69
2023-05-02T07:29:26.728Z,16.74
2023-05-02T07:30:26.725Z,16.69
2023-05-02T07:31:26.793Z,16.74
2023-05-02T07:32:26.834Z,17.08
2023-05-02T07:33:26.721Z,17.49
2023-05-02T07:34:26.661Z,18.43
2023-05-02T07:35:26.684Z,18.80
2023-05-02T07:36:26.636Z,18.92
2023-05-02T07:37:26.621Z,19.56
2023-05-02T07:38:26.610Z,20.24
2023-05-02T07:39:26.598Z,20.67
2023-05-02T07:40:26.593Z,21.11
2023-05-02T07:41:26.576Z,21.79
2023-05-02T07:42:26.555Z,22.50
2023-05-02T07:43:26.559Z,22.70
2023-05-02T07:44:26.528Z,21.73
2023-05-02T07:45:26.531Z,20.63
2023-05-02T07:46:26.550Z,19.27
2023-05-02T07:47:26.571Z,18.28
2023-05-02T07:48:27.789Z,17.76
2023-05-02T07:49:26.469Z,17.38
2023-05-02T07:50:26.466Z,17.06
2023-05-02T07:51:26.454Z,16.91
2023-05-02T07:52:26.424Z,16.71
2023-05-02T07:53:26.413Z,16.72
2023-05-02T07:54:26.401Z,16.64
2023-05-02T07:55:26.396Z,16.65
2023-05-02T07:56:26.374Z,16.57
2023-05-02T07:57:26.359Z,17.30
2023-05-02T07:58:26.349Z,17.68
2023-05-02T07:59:26.337Z,17.74
2023-05-02T08:00:26.330Z,17.79
2023-05-02T08:01:26.303Z,17.65
2023-05-02T08:02:26.417Z,17.54
2023-05-02T08:03:26.420Z,17.20
2023-05-02T08:04:26.416Z,17.01
2023-05-02T08:05:26.268Z,17.33
2023-05-02T08:06:26.266Z,17.70
2023-05-02T08:07:26.246Z,17.90
2023-05-02T08:08:26.218Z,17.80
2023-05-02T08:09:26.206Z,17.83
2023-05-02T08:10:26.220Z,18.11
2023-05-02T08:11:26.168Z,17.82
2023-05-02T08:12:26.158Z,17.42
2023-05-02T08:13:26.148Z,17.33
2023-05-02T08:14:26.126Z,17.02
2023-05-02T08:15:26.131Z,16.93
2023-05-02T08:16:26.188Z,16.84
2023-05-02T08:17:26.122Z,16.58
2023-05-02T08:18:26.103Z,16.50
2023-05-02T08:19:26.061Z,16.57
2023-05-02T08:20:26.044Z,16.76
2023-05-02T08:21:26.049Z,16.87
2023-05-02T08:22:26.022Z,17.01
2023-05-02T08:23:26.041Z,17.06
2023-05-02T08:24:25.997Z,17.08
2023-05-02T08:25:25.981Z,16.94
2023-05-02T08:26:25.980Z,16.91
2023-05-02T08:27:25.953Z,16.96
2023-05-02T08:28:25.938Z,17.05
2023-05-02T08:29:25.928Z,17.23
2023-05-02T08:30:25.912Z,17.15
2023-05-02T08:31:25.925Z,16.99
2023-05-02T08:32:25.892Z,16.90
2023-05-02T08:33:25.891Z,16.61
2023-05-02T08:34:25.858Z,16.46
2023-05-02T08:35:25.850Z,16.61
2023-05-02T08:36:25.850Z,16.54
2023-05-02T08:37:25.826Z,16.56
2023-05-02T08:38:25.809Z,16.50
2023-05-02T08:39:25.819Z,16.54
2023-05-02T08:40:38.103Z,16.38
2023-05-02T08:41:26.792Z,16.36
2023-05-02T08:42:25.767Z,16.42
2023-05-02T08:43:25.748Z,16.61
2023-05-02T08:44:25.726Z,16.65
2023-05-02T08:45:25.716Z,16.60
2023-05-02T08:46:25.728Z,16.49
2023-05-02T08:47:25.789Z,16.41
2023-05-02T08:48:25.668Z,16.38
2023-05-02T08:49:25.666Z,16.43
2023-05-02T08:50:25.644Z,16.53
2023-05-02T08:51:25.659Z,16.51
2023-05-02T08:52:25.620Z,16.43
2023-05-02T08:53:25.640Z,16.39
2023-05-02T08:54:25.635Z,16.46
2023-05-02T08:55:25.593Z,16.49
2023-05-02T08:56:25.585Z,16.38
2023-05-02T08:57:25.558Z,16.29
2023-05-02T08:58:25.532Z,16.20
2023-05-02T08:59:25.526Z,16.21
2023-05-02T09:00:25.513Z,16.28
2023-05-02T09:01:25.567Z,16.36
2023-05-02T09:02:25.503Z,16.43
2023-05-02T09:03:25.473Z,16.51
2023-05-02T09:04:25.545Z,16.61
2023-05-02T09:05:25.449Z,16.58
2023-05-02T09:06:25.486Z,16.60
2023-05-02T09:07:25.415Z,16.56
2023-05-02T09:08:25.410Z,16.72
2023-05-02T09:09:25.392Z,16.86
2023-05-02T09:10:25.373Z,16.81
2023-05-02T09:11:25.409Z,16.84
2023-05-02T09:12:25.350Z,16.97
2023-05-02T09:13:25.353Z,17.29
2023-05-02T09:14:25.324Z,17.29
2023-05-02T09:15:25.310Z,17.33
2023-05-02T09:16:25.359Z,17.67
2023-05-02T09:17:25.306Z,18.01
2023-05-02T09:18:25.491Z,18.47
2023-05-02T09:19:25.287Z,18.55
2023-05-02T09:20:25.247Z,18.56
2023-05-02T09:21:25.258Z,18.88
2023-05-02T09:22:25.235Z,18.88
2023-05-02T09:23:25.224Z,18.73
2023-05-02T09:24:25.201Z,18.98
2023-05-02T09:25:25.167Z,19.47
2023-05-02T09:26:25.170Z,19.89
2023-05-02T09:27:25.242Z,20.06
2023-05-02T09:28:25.134Z,20.04
2023-05-02T09:29:25.131Z,20.00
2023-05-02T09:30:25.111Z,19.85
2023-05-02T09:32:25.076Z,19.86
2023-05-02T09:33:25.079Z,19.55
2023-05-02T09:34:25.059Z,19.30
2023-05-02T09:35:25.036Z,19.14
2023-05-02T09:36:25.031Z,18.66
2023-05-02T09:37:25.028Z,18.49
2023-05-02T09:38:24.996Z,18.44
2023-05-02T09:39:26.148Z,18.49
2023-05-02T09:40:24.974Z,18.66
2023-05-02T09:41:24.961Z,18.73
2023-05-02T09:42:24.968Z,18.88
2023-05-02T09:43:24.952Z,18.88
2023-05-02T09:44:24.921Z,18.92
2023-05-02T09:45:24.914Z,19.14
2023-05-02T09:46:25.024Z,19.34
2023-05-02T09:47:24.909Z,19.52
2023-05-02T09:48:24.863Z,19.39
2023-05-02T09:49:24.852Z,19.52
2023-05-02T09:50:24.845Z,19.41
2023-05-02T09:51:24.822Z,19.63
2023-05-02T09:52:24.837Z,19.73
2023-05-02T09:53:24.799Z,19.67
2023-05-02T09:54:24.790Z,19.69
2023-05-02T09:55:24.784Z,19.51
2023-05-02T09:56:26.045Z,19.36
2023-05-02T09:57:24.761Z,19.19
2023-05-02T09:58:24.738Z,18.90
2023-05-02T09:59:24.755Z,18.74
2023-05-02T10:00:24.713Z,18.65
2023-05-02T10:01:24.702Z,18.53
2023-05-02T10:02:24.708Z,18.41
2023-05-02T10:03:24.669Z,18.53
2023-05-02T10:04:24.676Z,18.66
2023-05-02T10:05:24.936Z,18.78
2023-05-02T10:06:24.673Z,19.21
2023-05-02T10:07:24.634Z,19.67
2023-05-02T10:08:24.603Z,20.21
2023-05-02T10:09:24.601Z,20.40
2023-05-02T10:10:24.579Z,20.88
2023-05-02T10:11:24.570Z,21.60
2023-05-02T10:12:24.564Z,23.10
2023-05-02T10:13:24.539Z,23.40
2023-05-02T10:14:25.144Z,23.98
2023-05-02T10:15:24.535Z,24.50
2023-05-02T10:16:24.559Z,24.35
2023-05-02T10:17:24.537Z,23.91
2023-05-02T10:18:24.470Z,24.01
2023-05-02T10:19:24.456Z,23.34
2023-05-02T10:20:25.149Z,23.58
2023-05-02T10:21:24.431Z,23.95
2023-05-02T10:22:24.434Z,24.36
2023-05-02T10:23:24.417Z,25.10
2023-05-02T10:24:24.407Z,25.70
2023-05-02T10:25:24.388Z,24.61
2023-05-02T10:26:24.364Z,24.16
2023-05-02T10:27:24.376Z,23.15
2023-05-02T10:28:24.340Z,23.71
2023-05-02T10:29:24.328Z,23.96
2023-05-02T10:30:24.314Z,23.23
2023-05-02T10:31:24.391Z,22.60
2023-05-02T10:32:24.335Z,21.75
2023-05-02T10:33:24.306Z,21.61
2023-05-02T10:34:24.260Z,22.81
2023-05-02T10:35:24.260Z,23.68
2023-05-02T10:36:24.238Z,23.63
2023-05-02T10:37:24.233Z,24.58
2023-05-02T10:38:24.882Z,25.36
2023-05-02T10:39:24.196Z,25.85
2023-05-02T10:40:24.182Z,26.23
2023-05-02T10:41:24.171Z,26.18
2023-05-02T10:42:24.160Z,26.00
2023-05-02T10:43:24.157Z,23.96
2023-05-02T10:44:24.129Z,23.31
2023-05-02T10:45:24.115Z,22.78
2023-05-02T10:46:24.143Z,22.76
2023-05-02T10:47:24.192Z,23.80
2023-05-02T10:48:24.094Z,24.23
2023-05-02T10:49:24.067Z,24.36
2023-05-02T10:50:24.060Z,24.50
2023-05-02T10:51:24.038Z,24.78
2023-05-02T10:52:24.032Z,25.14
2023-05-02T10:53:24.033Z,25.18
2023-05-02T10:54:24.012Z,25.51
2023-05-02T10:55:24.006Z,25.95
2023-05-02T10:56:23.983Z,26.48
2023-05-02T10:57:23.966Z,26.31
2023-05-02T10:58:23.972Z,25.16
2023-05-02T10:59:23.934Z,24.21
2023-05-02T11:00:23.924Z,23.93
2023-05-02T11:01:24.007Z,24.01
2023-05-02T11:02:24.136Z,23.71
2023-05-02T11:03:23.918Z,23.44
2023-05-02T11:04:23.873Z,24.14
2023-05-02T11:05:23.871Z,24.92
2023-05-02T11:06:23.885Z,25.83
2023-05-02T11:07:23.868Z,26.48
2023-05-02T11:08:23.856Z,26.48
2023-05-02T11:09:23.805Z,25.68
2023-05-02T11:10:23.805Z,24.91
2023-05-02T11:11:23.794Z,24.53
2023-05-02T11:12:23.767Z,24.13
2023-05-02T11:13:23.775Z,23.09
2023-05-02T11:14:23.753Z,22.51
2023-05-02T11:15:23.727Z,22.35
2023-05-02T11:16:23.766Z,22.23
2023-05-02T11:17:23.751Z,21.95
2023-05-02T11:18:23.710Z,21.58
2023-05-02T11:19:23.705Z,21.61
2023-05-02T11:20:23.679Z,21.48
2023-05-02T11:21:23.651Z,21.15
2023-05-02T11:22:23.649Z,21.02
2023-05-02T11:23:23.641Z,21.64
2023-05-02T11:24:23.613Z,22.53
2023-05-02T11:25:23.599Z,23.73
2023-05-02T11:26:23.592Z,24.86
2023-05-02T11:27:23.580Z,24.98
2023-05-02T11:28:23.617Z,24.68
2023-05-02T11:29:23.549Z,24.35
2023-05-02T11:30:23.540Z,23.59
2023-05-02T11:31:23.549Z,22.85
2023-05-02T11:32:23.553Z,22.43
2023-05-02T11:33:23.610Z,21.58
2023-05-02T11:34:23.514Z,21.03
2023-05-02T11:35:23.494Z,21.80
2023-05-02T11:36:23.465Z,21.79
2023-05-02T11:37:23.447Z,21.69
2023-05-02T11:38:23.465Z,21.69
2023-05-02T11:39:23.435Z,21.73
2023-05-02T11:40:23.412Z,21.57
2023-05-02T11:41:23.403Z,21.05
2023-05-02T11:42:23.390Z,21.03
2023-05-02T11:43:23.366Z,21.99
2023-05-02T11:44:23.368Z,22.68
2023-05-02T11:45:23.343Z,23.77
2023-05-02T11:46:23.404Z,24.86
2023-05-02T11:47:23.316Z,25.70
2023-05-02T11:48:23.310Z,26.25
2023-05-02T11:49:23.303Z,26.84
2023-05-02T11:50:23.277Z,27.58
2023-05-02T11:51:23.294Z,27.73
2023-05-02T11:52:23.255Z,26.93
2023-05-02T11:53:23.281Z,26.45
2023-05-02T11:54:23.262Z,25.60
2023-05-02T11:55:23.248Z,25.46
2023-05-02T11:56:23.211Z,25.21
2023-05-02T11:57:23.219Z,25.06
2023-05-02T11:58:23.174Z,23.99
2023-05-02T11:59:23.177Z,23.87
2023-05-02T12:00:23.147Z,24.03
2023-05-02T12:01:23.157Z,23.84
2023-05-02T12:02:23.188Z,24.50
2023-05-02T12:03:23.193Z,25.08
2023-05-02T12:04:23.131Z,25.72
2023-05-02T12:05:23.097Z,26.28
2023-05-02T12:06:23.154Z,27.03
2023-05-02T12:07:23.147Z,27.21
2023-05-02T12:08:23.050Z,27.30
2023-05-02T12:09:23.047Z,27.21
2023-05-02T12:10:23.020Z,27.82
2023-05-02T12:11:23.007Z,28.12
2023-05-02T12:12:23.002Z,27.98
2023-05-02T12:13:22.997Z,27.92
2023-05-02T12:14:22.984Z,27.20
2023-05-02T12:15:22.959Z,26.90
2023-05-02T12:16:22.986Z,26.38
2023-05-02T12:17:23.041Z,25.77
2023-05-02T12:18:22.918Z,25.53
2023-05-02T12:19:22.919Z,25.96
2023-05-02T12:20:22.895Z,25.88
2023-05-02T12:21:22.879Z,25.69
2023-05-02T12:22:22.870Z,25.91
2023-05-02T12:23:22.877Z,26.33
2023-05-02T12:24:22.866Z,26.80
2023-05-02T12:25:22.827Z,26.99
2023-05-02T12:26:22.837Z,27.14
2023-05-02T12:27:22.809Z,25.80
2023-05-02T12:28:22.792Z,24.03
2023-05-02T12:29:22.789Z,24.73
2023-05-02T12:30:22.767Z,25.32
2023-05-02T12:31:22.865Z,25.90
2023-05-02T12:32:22.758Z,26.05
2023-05-02T12:33:22.731Z,25.66
2023-05-02T12:34:22.730Z,25.29
2023-05-02T12:35:22.696Z,24.77
2023-05-02T12:36:22.686Z,23.21
2023-05-02T12:37:22.680Z,22.94
2023-05-02T12:38:22.669Z,22.51
2023-05-02T12:39:22.684Z,22.22
2023-05-02T12:40:22.640Z,21.96
2023-05-02T12:41:22.623Z,21.75
2023-05-02T12:42:22.641Z,21.62
2023-05-02T12:43:22.622Z,21.45
2023-05-02T12:44:22.601Z,21.27
2023-05-02T12:45:22.569Z,21.05
2023-05-02T12:46:22.598Z,20.84
2023-05-02T12:47:22.989Z,20.58
2023-05-02T12:48:22.531Z,20.39
2023-05-02T12:49:22.536Z,20.04
2023-05-02T12:50:22.504Z,19.69
2023-05-02T12:51:22.503Z,19.48
2023-05-02T12:52:22.484Z,19.47
2023-05-02T12:53:22.463Z,19.41
2023-05-02T12:54:22.478Z,19.48
2023-05-02T12:55:22.459Z,19.51